KAOH/AOH METAR and TAF weather

Enter ICAO airport designator
Station Type Date Time Source
KAOH METAR 2022/09/26 08:53 UTC NOAA

KAOH 260853Z AUTO 25007KT 10SM FEW095 11/08 A2974 RMK AO2 SLP069 T01060083 50002


Station Type Date Time Source
KAOH Decoded METAR 2022/09/26 08:53 UTC NOAA

LIMA ALLEN COUNTY AIRPORT, OH, United States (KAOH) 40-42N 84-01W 296M
Sep 26, 2022 - 04:53 AM EDT / 2022.09.26 0853 UTC
Wind: from the WSW (250 degrees) at 8 MPH (7 KT):0
Visibility: 10 mile(s):0
Sky conditions: mostly clear
Temperature: 51.1 F (10.6 C)
Dew Point: 46.9 F (8.3 C)
Relative Humidity: 85%
Pressure (altimeter): 29.74 in. Hg (1007 hPa)
Pressure tendency: 0.01 inches (0.2 hPa) higher than three hours ago
ob: KAOH 260853Z AUTO 25007KT 10SM FEW095 11/08 A2974 RMK AO2 SLP069 T01060083 50002
cycle: 9

Station Type Date Time Source
KAOH TAF UTC NOAA

Error!

Example: see airport list